createdAt,value
2022-07-31T00:00:20.600Z,97359.19
2022-07-31T00:02:46.585Z,97363.22
2022-07-31T00:05:12.614Z,97363.56
2022-07-31T00:07:38.591Z,97365.94
2022-07-31T00:10:04.564Z,97362.41
2022-07-31T00:12:30.593Z,97367.72
2022-07-31T00:14:56.585Z,97368.53
2022-07-31T00:17:22.557Z,97367.63
2022-07-31T00:19:48.718Z,97370.22
2022-07-31T00:22:15.416Z,97383.09
2022-07-31T00:24:42.088Z,97373.19
2022-07-31T00:27:08.137Z,97373.69
2022-07-31T00:29:34.139Z,97367.34
2022-07-31T00:32:00.102Z,97364.97
2022-07-31T00:34:26.120Z,97367.06
2022-07-31T00:36:52.131Z,97371.47
2022-07-31T00:39:18.115Z,97377.28
2022-07-31T00:41:44.160Z,97374.84
2022-07-31T00:44:12.369Z,97369.88
2022-07-31T00:46:38.585Z,97379.06
2022-07-31T00:49:06.433Z,97368.81
2022-07-31T00:51:32.437Z,97374.16
2022-07-31T00:53:58.404Z,97368.13
2022-07-31T00:56:25.515Z,97379.31
2022-07-31T00:58:51.495Z,97370.81
2022-07-31T01:01:17.500Z,97372.91
2022-07-31T01:03:43.566Z,97366.88
2022-07-31T01:06:09.533Z,97370.09
2022-07-31T01:08:35.512Z,97374.41
2022-07-31T01:11:01.529Z,97368.50
2022-07-31T01:13:27.511Z,97384.34
2022-07-31T01:15:53.479Z,97378.00
2022-07-31T01:18:19.490Z,97371.31
2022-07-31T01:20:45.455Z,97371.50
2022-07-31T01:23:11.437Z,97377.41
2022-07-31T01:25:37.459Z,97377.06
2022-07-31T01:28:03.439Z,97382.75
2022-07-31T01:30:30.922Z,97381.31
2022-07-31T01:32:57.066Z,97378.25
2022-07-31T01:35:23.035Z,97378.94
2022-07-31T01:37:49.003Z,97381.59
2022-07-31T01:40:15.048Z,97376.63
2022-07-31T01:42:41.025Z,97375.25
2022-07-31T01:45:07.001Z,97373.56
2022-07-31T01:47:33.049Z,97370.25
2022-07-31T01:49:59.531Z,97371.00
2022-07-31T01:52:25.790Z,97375.75
2022-07-31T01:54:51.844Z,97366.88
2022-07-31T01:57:18.728Z,97362.34
2022-07-31T01:59:46.303Z,97365.59
2022-07-31T02:02:12.446Z,97361.31
2022-07-31T02:04:38.417Z,97365.38
2022-07-31T02:07:04.414Z,97369.47
2022-07-31T02:09:30.428Z,97370.13
2022-07-31T02:11:56.417Z,97366.56
2022-07-31T02:14:22.836Z,97369.31
2022-07-31T02:16:48.861Z,97375.72
2022-07-31T02:19:14.826Z,97376.66
2022-07-31T02:21:40.792Z,97371.81
2022-07-31T02:24:06.808Z,97380.88
2022-07-31T02:26:32.792Z,97372.78
2022-07-31T02:28:58.760Z,97371.09
2022-07-31T02:31:26.814Z,97371.81
2022-07-31T02:33:53.580Z,97375.53
2022-07-31T02:36:19.582Z,97374.97
2022-07-31T02:38:45.594Z,97370.13
2022-07-31T02:41:11.567Z,97375.47
2022-07-31T02:43:37.541Z,97371.25
2022-07-31T02:46:03.587Z,97377.25
2022-07-31T02:48:29.561Z,97378.84
2022-07-31T02:50:55.531Z,97378.16
2022-07-31T02:53:21.545Z,97361.13
2022-07-31T02:55:47.542Z,97361.88
2022-07-31T02:58:13.512Z,97359.56
2022-07-31T03:00:39.631Z,97354.53
2022-07-31T03:03:05.628Z,97358.97
2022-07-31T03:05:31.603Z,97356.31
2022-07-31T03:07:58.423Z,97360.66
2022-07-31T03:10:25.851Z,97359.72
2022-07-31T03:12:51.872Z,97358.91
2022-07-31T03:15:17.885Z,97357.47
2022-07-31T03:17:43.850Z,97362.13
2022-07-31T03:20:09.839Z,97358.25
2022-07-31T03:22:35.856Z,97359.94
2022-07-31T03:25:01.827Z,97365.78
2022-07-31T03:27:27.842Z,97368.84
2022-07-31T03:29:53.865Z,97363.75
2022-07-31T03:32:19.827Z,97358.09
2022-07-31T03:34:46.593Z,97370.84
2022-07-31T03:37:13.539Z,97361.78
2022-07-31T03:39:40.097Z,97365.16
2022-07-31T03:42:06.366Z,97352.09
2022-07-31T03:44:40.470Z,97360.59
2022-07-31T03:47:06.434Z,97366.06
2022-07-31T03:49:32.506Z,97364.06
2022-07-31T03:51:58.595Z,97369.44
2022-07-31T03:54:24.631Z,97352.44
2022-07-31T03:56:50.615Z,97370.25
2022-07-31T03:59:16.778Z,97365.19
2022-07-31T04:01:57.316Z,97377.16
2022-07-31T04:04:24.848Z,97382.38
2022-07-31T04:06:50.822Z,97379.22
2022-07-31T04:09:18.870Z,97374.03
2022-07-31T04:11:45.236Z,97377.63
2022-07-31T04:14:11.215Z,97382.69
2022-07-31T04:16:37.188Z,97388.28
2022-07-31T04:19:03.208Z,97384.19
2022-07-31T04:21:29.198Z,97384.97
2022-07-31T04:23:55.173Z,97374.34
2022-07-31T04:26:26.117Z,97372.88
2022-07-31T04:28:52.448Z,97385.31
2022-07-31T04:31:18.423Z,97369.63
2022-07-31T04:33:47.384Z,97369.06
2022-07-31T04:36:29.277Z,97368.34
2022-07-31T04:38:56.761Z,97362.13
2022-07-31T04:41:25.364Z,97368.47
2022-07-31T04:43:52.135Z,97372.56
2022-07-31T04:46:18.187Z,97371.28
2022-07-31T04:48:44.184Z,97372.72
2022-07-31T04:51:11.005Z,97364.94
2022-07-31T04:53:40.993Z,97360.81
2022-07-31T04:56:06.956Z,97359.13
2022-07-31T04:58:32.929Z,97367.78
2022-07-31T05:00:58.950Z,97372.91
2022-07-31T05:03:25.816Z,97375.38
2022-07-31T05:05:53.047Z,97373.84
2022-07-31T05:08:19.061Z,97379.31
2022-07-31T05:10:45.850Z,97388.59
2022-07-31T05:13:11.818Z,97389.50
2022-07-31T05:15:37.873Z,97394.22
2022-07-31T05:18:03.842Z,97397.38
2022-07-31T05:20:29.828Z,97405.13
2022-07-31T05:22:55.862Z,97399.78
2022-07-31T05:25:23.054Z,97394.63
2022-07-31T05:27:50.120Z,97394.59
2022-07-31T05:30:16.212Z,97394.91
2022-07-31T05:32:42.200Z,97399.81
2022-07-31T05:35:08.175Z,97401.75
2022-07-31T05:37:35.880Z,97407.41
2022-07-31T05:40:01.841Z,97407.59
2022-07-31T05:42:27.829Z,97402.44
2022-07-31T05:44:53.931Z,97406.59
2022-07-31T05:47:19.920Z,97413.59
2022-07-31T05:49:45.925Z,97409.53
2022-07-31T05:52:11.953Z,97417.84
2022-07-31T05:54:37.931Z,97416.69
2022-07-31T05:57:03.908Z,97424.09
2022-07-31T05:59:29.927Z,97423.31
2022-07-31T06:01:55.971Z,97425.13
2022-07-31T06:04:22.776Z,97418.19
2022-07-31T06:06:49.675Z,97415.41
2022-07-31T06:09:15.664Z,97418.84
2022-07-31T06:11:42.388Z,97425.91
2022-07-31T06:14:09.297Z,97429.59
2022-07-31T06:16:35.995Z,97421.06
2022-07-31T06:19:01.979Z,97424.16
2022-07-31T06:21:30.738Z,97418.59
2022-07-31T06:23:57.814Z,97428.50
2022-07-31T06:26:26.807Z,97428.66
2022-07-31T06:28:53.789Z,97432.09
2022-07-31T06:31:19.855Z,97430.09
2022-07-31T06:33:48.242Z,97437.38
2022-07-31T06:36:14.647Z,97424.19
2022-07-31T06:38:40.617Z,97433.66
2022-07-31T06:41:06.590Z,97428.91
2022-07-31T06:43:32.610Z,97421.81
2022-07-31T06:45:58.589Z,97429.78
2022-07-31T06:48:24.560Z,97421.59
2022-07-31T06:51:08.515Z,97417.31
2022-07-31T06:53:39.247Z,97422.53
2022-07-31T06:56:05.259Z,97422.63
2022-07-31T06:58:31.224Z,97421.91
2022-07-31T07:00:57.224Z,97416.09
2022-07-31T07:03:24.088Z,97411.50
2022-07-31T07:05:50.058Z,97420.72
2022-07-31T07:08:16.060Z,97409.47
2022-07-31T07:10:42.097Z,97417.16
2022-07-31T07:13:08.064Z,97413.94
2022-07-31T07:15:34.044Z,97418.75
2022-07-31T07:18:00.077Z,97420.13
2022-07-31T07:20:26.056Z,97418.91
2022-07-31T07:22:52.041Z,97408.53
2022-07-31T07:25:18.088Z,97401.41
2022-07-31T07:27:44.065Z,97410.72
2022-07-31T07:30:10.062Z,97400.38
2022-07-31T07:32:36.106Z,97401.00
2022-07-31T07:35:02.096Z,97406.91
2022-07-31T07:37:28.082Z,97399.56
2022-07-31T07:39:54.095Z,97399.00
2022-07-31T07:42:20.059Z,97400.34
2022-07-31T07:44:46.050Z,97399.16
2022-07-31T07:47:12.268Z,97399.81
2022-07-31T07:49:39.012Z,97404.66
2022-07-31T07:52:05.795Z,97396.72
2022-07-31T07:54:31.823Z,97402.59
2022-07-31T07:56:57.816Z,97400.91
2022-07-31T07:59:25.151Z,97399.06
2022-07-31T08:01:51.171Z,97398.53
2022-07-31T08:04:17.135Z,97407.72
2022-07-31T08:06:43.131Z,97397.00
2022-07-31T08:09:09.153Z,97407.47
2022-07-31T08:11:35.121Z,97398.69
2022-07-31T08:14:01.100Z,97400.34
2022-07-31T08:16:27.127Z,97380.34
2022-07-31T08:18:53.110Z,97396.34
2022-07-31T08:21:19.100Z,97393.56
2022-07-31T08:23:45.117Z,97396.72
2022-07-31T08:26:11.568Z,97395.53
2022-07-31T08:28:39.127Z,97388.34
2022-07-31T08:31:05.179Z,97394.22
2022-07-31T08:33:31.165Z,97405.16
2022-07-31T08:35:57.267Z,97400.78
2022-07-31T08:38:26.041Z,97411.81
2022-07-31T08:40:52.751Z,97408.25
2022-07-31T08:44:00.705Z,97403.16
2022-07-31T08:46:05.552Z,97401.28
2022-07-31T08:48:32.220Z,97398.72
2022-07-31T08:50:58.218Z,97402.25
2022-07-31T08:53:25.251Z,97404.63
2022-07-31T08:55:56.722Z,97405.91
2022-07-31T08:58:24.855Z,97407.41
2022-07-31T09:00:51.041Z,97399.03
2022-07-31T09:03:17.040Z,97409.94
2022-07-31T09:05:43.039Z,97395.28
2022-07-31T09:08:14.814Z,97398.09
2022-07-31T09:10:43.941Z,97390.88
2022-07-31T09:13:15.091Z,97389.44
2022-07-31T09:15:41.367Z,97374.38
2022-07-31T09:18:07.459Z,97389.34
2022-07-31T09:20:34.193Z,97380.22
2022-07-31T09:23:00.168Z,97381.19
2022-07-31T09:25:26.143Z,97379.72
2022-07-31T09:27:52.172Z,97386.47
2022-07-31T09:30:18.151Z,97370.63
2022-07-31T09:32:44.130Z,97372.19
2022-07-31T09:35:10.187Z,97378.13
2022-07-31T09:37:36.163Z,97369.38
2022-07-31T09:40:02.126Z,97375.94
2022-07-31T09:42:28.147Z,97375.72
2022-07-31T09:44:54.857Z,97361.47
2022-07-31T09:47:20.847Z,97367.63
2022-07-31T09:49:47.826Z,97380.84
2022-07-31T09:52:14.099Z,97375.75
2022-07-31T09:54:40.096Z,97363.28
2022-07-31T09:57:06.423Z,97370.97
2022-07-31T09:59:32.625Z,97365.88
2022-07-31T10:01:58.609Z,97378.47
2022-07-31T10:04:25.455Z,97366.19
2022-07-31T10:06:51.432Z,97361.88
2022-07-31T10:09:17.407Z,97359.53
2022-07-31T10:11:43.419Z,97354.06
2022-07-31T10:14:09.393Z,97354.72
2022-07-31T10:16:35.997Z,97345.94
2022-07-31T10:19:02.029Z,97352.06
2022-07-31T10:21:28.000Z,97350.38
2022-07-31T10:23:53.995Z,97354.31
2022-07-31T10:26:20.025Z,97343.31
2022-07-31T10:28:45.996Z,97343.75
2022-07-31T10:31:11.969Z,97337.59
2022-07-31T10:33:45.348Z,97331.50
2022-07-31T10:36:11.387Z,97336.44
2022-07-31T10:38:38.489Z,97336.00
2022-07-31T10:41:05.183Z,97342.88
2022-07-31T10:43:31.684Z,97335.31
2022-07-31T10:45:58.659Z,97327.56
2022-07-31T10:48:25.133Z,97324.66
2022-07-31T10:50:51.112Z,97330.75
2022-07-31T10:53:17.131Z,97323.03
2022-07-31T10:55:43.099Z,97327.06
2022-07-31T10:58:09.088Z,97325.94
2022-07-31T11:00:35.110Z,97319.00
2022-07-31T11:03:01.090Z,97321.94
2022-07-31T11:05:27.576Z,97320.88
2022-07-31T11:07:54.456Z,97323.28
2022-07-31T11:10:21.167Z,97320.06
2022-07-31T11:12:47.431Z,97322.09
2022-07-31T11:15:13.497Z,97316.19
2022-07-31T11:18:22.299Z,97320.50
2022-07-31T11:20:25.999Z,97324.31
2022-07-31T11:22:52.020Z,97315.44
2022-07-31T11:25:17.992Z,97312.28
2022-07-31T11:27:44.008Z,97308.75
2022-07-31T11:30:13.528Z,97308.31
2022-07-31T11:32:39.779Z,97308.41
2022-07-31T11:35:05.814Z,97302.63
2022-07-31T11:37:46.466Z,97310.34
2022-07-31T11:40:17.821Z,97307.06
2022-07-31T11:42:43.807Z,97307.38
2022-07-31T11:45:12.351Z,97302.06
2022-07-31T11:48:10.975Z,97307.91
2022-07-31T11:50:25.447Z,97302.38
2022-07-31T11:52:51.456Z,97307.41
2022-07-31T11:55:17.428Z,97295.91
2022-07-31T11:57:51.835Z,97302.53
2022-07-31T12:00:26.288Z,97295.06
2022-07-31T12:02:53.394Z,97292.22
2022-07-31T12:05:19.585Z,97296.78
2022-07-31T12:08:04.474Z,97299.94
2022-07-31T12:10:31.380Z,97290.00
2022-07-31T12:12:59.548Z,97281.66
2022-07-31T12:15:26.242Z,97291.94
2022-07-31T12:17:52.295Z,97292.75
2022-07-31T12:20:29.960Z,97295.31
2022-07-31T12:23:00.841Z,97288.97
2022-07-31T12:25:26.819Z,97290.72
2022-07-31T12:27:52.800Z,97292.22
2022-07-31T12:30:18.810Z,97296.09
2022-07-31T12:32:45.360Z,97295.63
2022-07-31T12:35:11.325Z,97285.88
2022-07-31T12:37:37.365Z,97293.84
2022-07-31T12:40:03.399Z,97286.44
2022-07-31T12:42:30.415Z,97281.41
2022-07-31T12:44:57.345Z,97279.47
2022-07-31T12:47:26.329Z,97280.56
2022-07-31T12:49:52.459Z,97281.53
2022-07-31T12:52:19.585Z,97279.13
2022-07-31T12:54:45.571Z,97276.84
2022-07-31T12:57:11.552Z,97271.31
2022-07-31T12:59:37.582Z,97261.31
2022-07-31T13:02:04.443Z,97270.63
2022-07-31T13:04:31.911Z,97282.91
2022-07-31T13:06:58.766Z,97285.03
2022-07-31T13:09:25.030Z,97271.06
2022-07-31T13:11:55.801Z,97272.72
2022-07-31T13:14:25.291Z,97274.69
2022-07-31T13:16:51.261Z,97269.09
2022-07-31T13:19:17.615Z,97266.31
2022-07-31T13:21:49.000Z,97269.22
2022-07-31T13:24:16.610Z,97263.19
2022-07-31T13:26:42.570Z,97264.75
2022-07-31T13:29:08.587Z,97263.66
2022-07-31T13:31:34.565Z,97274.03
2022-07-31T13:34:00.536Z,97274.81
2022-07-31T13:36:26.562Z,97272.41
2022-07-31T13:38:52.540Z,97269.00
2022-07-31T13:41:18.554Z,97287.38
2022-07-31T13:43:59.846Z,97275.41
2022-07-31T13:46:26.772Z,97268.63
2022-07-31T13:48:52.922Z,97273.84
2022-07-31T13:51:19.683Z,97272.00
2022-07-31T13:53:51.820Z,97276.91
2022-07-31T13:56:39.039Z,97273.91
2022-07-31T13:59:06.207Z,97276.84
2022-07-31T14:02:02.813Z,97270.69
2022-07-31T14:04:23.422Z,97276.91
2022-07-31T14:06:51.821Z,97273.75
2022-07-31T14:09:18.647Z,97268.63
2022-07-31T14:11:44.619Z,97269.22
2022-07-31T14:14:11.752Z,97275.00
2022-07-31T14:16:38.919Z,97271.22
2022-07-31T14:19:05.688Z,97283.72
2022-07-31T14:21:32.627Z,97273.59
2022-07-31T14:23:58.604Z,97278.72
2022-07-31T14:26:25.125Z,97277.22
2022-07-31T14:28:51.152Z,97286.84
2022-07-31T14:31:17.156Z,97296.66
2022-07-31T14:33:43.149Z,97283.53
2022-07-31T14:36:09.207Z,97293.72
2022-07-31T14:38:35.195Z,97295.75
2022-07-31T14:41:01.167Z,97288.91
2022-07-31T14:43:27.180Z,97299.72
2022-07-31T14:45:53.153Z,97291.13
2022-07-31T14:48:19.136Z,97298.63
2022-07-31T14:50:45.180Z,97298.38
2022-07-31T14:53:11.153Z,97292.66
2022-07-31T14:55:37.124Z,97289.28
2022-07-31T14:58:03.153Z,97301.38
2022-07-31T15:00:29.140Z,97304.25
2022-07-31T15:02:55.129Z,97307.06
2022-07-31T15:06:51.061Z,97309.13
2022-07-31T15:08:07.115Z,97318.81
2022-07-31T15:10:33.137Z,97310.56
2022-07-31T15:12:59.115Z,97319.09
2022-07-31T15:15:26.299Z,97321.28
2022-07-31T15:17:55.559Z,97304.31
2022-07-31T15:20:21.548Z,97309.47
2022-07-31T15:22:58.988Z,97308.59
2022-07-31T15:25:28.243Z,97302.28
2022-07-31T15:27:54.228Z,97299.16
2022-07-31T15:30:20.250Z,97297.69
2022-07-31T15:32:46.224Z,97304.94
2022-07-31T15:35:12.199Z,97296.50
2022-07-31T15:37:38.228Z,97307.22
2022-07-31T15:40:04.314Z,97294.13
2022-07-31T15:42:30.395Z,97294.13
2022-07-31T15:44:56.441Z,97298.09
2022-07-31T15:47:22.415Z,97297.22
2022-07-31T15:49:48.452Z,97304.22
2022-07-31T15:52:14.533Z,97296.28
2022-07-31T15:54:46.616Z,97298.91
2022-07-31T15:57:12.634Z,97293.78
2022-07-31T15:59:38.646Z,97292.16
2022-07-31T16:02:05.748Z,97285.28
2022-07-31T16:04:31.779Z,97285.16
2022-07-31T16:06:57.816Z,97282.06
2022-07-31T16:09:25.747Z,97280.38
2022-07-31T16:12:05.079Z,97284.16
2022-07-31T16:14:31.749Z,97284.38
2022-07-31T16:16:57.716Z,97284.38
2022-07-31T16:19:23.864Z,97275.34
2022-07-31T16:21:49.887Z,97265.03
2022-07-31T16:24:15.949Z,97275.78
2022-07-31T16:26:49.579Z,97280.09
2022-07-31T16:29:17.711Z,97279.59
2022-07-31T16:31:44.609Z,97277.06
2022-07-31T16:34:11.369Z,97274.97
2022-07-31T16:36:38.318Z,97275.75
2022-07-31T16:39:19.859Z,97289.16
2022-07-31T16:41:54.509Z,97282.47
2022-07-31T16:44:21.374Z,97281.22
2022-07-31T16:46:52.815Z,97286.00
2022-07-31T16:49:31.930Z,97282.97
2022-07-31T16:52:03.111Z,97273.50
2022-07-31T16:54:29.244Z,97286.94
2022-07-31T16:56:55.221Z,97285.16
2022-07-31T16:59:21.298Z,97284.72
2022-07-31T17:01:57.726Z,97278.59
2022-07-31T17:04:27.143Z,97281.06
2022-07-31T17:06:53.127Z,97279.50
2022-07-31T17:09:19.112Z,97276.81
2022-07-31T17:11:45.135Z,97289.78
2022-07-31T17:14:11.117Z,97295.84
2022-07-31T17:16:37.079Z,97296.69
2022-07-31T17:19:05.776Z,97296.19
2022-07-31T17:21:31.938Z,97301.16
2022-07-31T17:23:58.983Z,97299.22
2022-07-31T17:26:25.199Z,97303.81
2022-07-31T17:28:55.083Z,97298.88
2022-07-31T17:31:21.047Z,97309.72
2022-07-31T17:33:54.849Z,97310.53
2022-07-31T17:36:25.925Z,97311.03
2022-07-31T17:38:52.401Z,97304.38
2022-07-31T17:41:24.723Z,97306.28
2022-07-31T17:43:53.059Z,97300.13
2022-07-31T17:46:28.213Z,97311.50
2022-07-31T17:49:00.900Z,97306.88
2022-07-31T17:51:26.912Z,97315.59
2022-07-31T17:54:00.306Z,97311.78
2022-07-31T17:56:26.582Z,97322.53
2022-07-31T17:58:52.613Z,97317.13
2022-07-31T18:01:18.629Z,97335.72
2022-07-31T18:03:44.723Z,97321.72
2022-07-31T18:06:10.712Z,97318.16
2022-07-31T18:08:36.690Z,97328.25
2022-07-31T18:11:02.845Z,97329.50
2022-07-31T18:13:28.822Z,97325.75
2022-07-31T18:15:54.833Z,97335.50
2022-07-31T18:18:21.750Z,97332.66
2022-07-31T18:20:47.732Z,97331.63
2022-07-31T18:23:14.326Z,97334.19
2022-07-31T18:25:40.825Z,97332.56
2022-07-31T18:28:07.467Z,97337.34
2022-07-31T18:30:35.920Z,97345.22
2022-07-31T18:33:04.686Z,97345.53
2022-07-31T18:35:30.654Z,97341.31
2022-07-31T18:37:57.011Z,97341.84
2022-07-31T18:40:26.536Z,97349.13
2022-07-31T18:42:52.529Z,97348.84
2022-07-31T18:45:18.502Z,97350.00
2022-07-31T18:47:47.544Z,97353.69
2022-07-31T18:50:59.944Z,97359.28
2022-07-31T18:53:00.568Z,97355.97
2022-07-31T18:55:26.714Z,97356.94
2022-07-31T18:57:55.873Z,97369.31
2022-07-31T19:00:25.183Z,97374.13
2022-07-31T19:02:51.171Z,97358.66
2022-07-31T19:05:21.714Z,97368.28
2022-07-31T19:07:48.867Z,97387.81
2022-07-31T19:10:29.258Z,97383.13
2022-07-31T19:15:47.607Z,97380.38
2022-07-31T19:18:15.173Z,97387.06
2022-07-31T19:20:58.842Z,97388.81
2022-07-31T19:23:27.452Z,97393.31
2022-07-31T19:26:02.718Z,97397.75
2022-07-31T19:28:30.253Z,97391.88
2022-07-31T19:30:56.240Z,97395.13
2022-07-31T19:33:22.222Z,97397.34
2022-07-31T19:35:58.535Z,97398.56
2022-07-31T19:38:26.594Z,97402.81
2022-07-31T19:40:53.426Z,97405.38
2022-07-31T19:43:20.133Z,97404.38
2022-07-31T19:46:00.598Z,97404.59
2022-07-31T19:48:33.336Z,97413.63
2022-07-31T19:50:59.316Z,97410.50
2022-07-31T19:53:26.169Z,97413.13
2022-07-31T19:55:52.190Z,97412.44
2022-07-31T19:58:18.194Z,97409.53
2022-07-31T20:00:44.181Z,97416.44
2022-07-31T20:03:10.261Z,97414.00
2022-07-31T20:05:36.288Z,97409.88
2022-07-31T20:08:02.260Z,97414.91
2022-07-31T20:10:28.305Z,97407.78
2022-07-31T20:12:54.282Z,97408.78
2022-07-31T20:15:20.258Z,97403.84
2022-07-31T20:17:47.612Z,97411.41
2022-07-31T20:20:15.560Z,97413.22
2022-07-31T20:22:42.091Z,97411.63
2022-07-31T20:27:58.857Z,97413.81
2022-07-31T20:30:24.880Z,97418.44
2022-07-31T20:32:50.847Z,97416.28
2022-07-31T20:35:35.290Z,97410.91
2022-07-31T20:38:03.449Z,97410.50
2022-07-31T20:40:29.416Z,97410.78
2022-07-31T20:42:55.399Z,97416.53
2022-07-31T20:45:21.420Z,97416.03
2022-07-31T20:47:47.391Z,97413.47
2022-07-31T20:50:13.364Z,97405.91
2022-07-31T20:52:39.384Z,97411.25
2022-07-31T20:55:05.373Z,97414.03
2022-07-31T20:57:31.345Z,97403.22
2022-07-31T20:59:57.368Z,97403.56
2022-07-31T21:02:23.523Z,97402.13
2022-07-31T21:04:50.287Z,97405.72
2022-07-31T21:07:16.356Z,97401.22
2022-07-31T21:09:42.364Z,97403.69
2022-07-31T21:12:08.485Z,97405.63
2022-07-31T21:14:35.389Z,97408.28
2022-07-31T21:17:01.402Z,97398.53
2022-07-31T21:19:27.397Z,97398.88
2022-07-31T21:21:53.460Z,97401.38
2022-07-31T21:24:19.469Z,97397.22
2022-07-31T21:26:45.432Z,97392.72
2022-07-31T21:29:11.590Z,97394.75
2022-07-31T21:31:37.692Z,97402.50
2022-07-31T21:34:15.223Z,97402.25
2022-07-31T21:36:41.191Z,97408.50
2022-07-31T21:39:07.185Z,97411.19
2022-07-31T21:41:38.727Z,97409.31
2022-07-31T21:44:08.479Z,97404.50
2022-07-31T21:46:38.417Z,97406.72
2022-07-31T21:49:04.490Z,97409.41
2022-07-31T21:51:30.520Z,97414.22
2022-07-31T21:53:56.543Z,97417.72
2022-07-31T21:56:22.510Z,97414.06
2022-07-31T21:58:48.488Z,97414.63
2022-07-31T22:01:14.531Z,97407.56
2022-07-31T22:03:40.524Z,97410.09
2022-07-31T22:06:06.496Z,97404.41
2022-07-31T22:08:32.542Z,97404.72
2022-07-31T22:10:58.508Z,97415.03
2022-07-31T22:13:24.488Z,97408.56
2022-07-31T22:15:59.977Z,97412.56
2022-07-31T22:18:26.836Z,97408.19
2022-07-31T22:20:53.771Z,97408.00
2022-07-31T22:23:20.482Z,97410.16
2022-07-31T22:25:46.783Z,97407.50
2022-07-31T22:28:13.456Z,97404.81
2022-07-31T22:30:40.196Z,97400.50
2022-07-31T22:33:06.182Z,97397.53
2022-07-31T22:35:32.203Z,97400.25
2022-07-31T22:37:58.269Z,97401.63
2022-07-31T22:40:24.255Z,97394.06
2022-07-31T22:42:56.565Z,97393.59
2022-07-31T22:45:24.166Z,97397.06
2022-07-31T22:47:50.180Z,97393.13
2022-07-31T22:50:16.167Z,97393.13
2022-07-31T22:52:42.180Z,97392.56
2022-07-31T22:55:08.200Z,97385.59
2022-07-31T22:57:34.178Z,97388.84
2022-07-31T23:00:00.169Z,97386.72
2022-07-31T23:02:26.241Z,97388.59
2022-07-31T23:04:52.253Z,97383.47
2022-07-31T23:07:18.232Z,97378.41
2022-07-31T23:09:44.242Z,97381.66
2022-07-31T23:12:10.797Z,97388.88
2022-07-31T23:14:37.422Z,97385.16
2022-07-31T23:17:03.786Z,97381.34
2022-07-31T23:19:29.784Z,97384.06
2022-07-31T23:21:55.763Z,97383.28
2022-07-31T23:24:21.793Z,97380.59
2022-07-31T23:26:47.768Z,97379.50
2022-07-31T23:29:13.749Z,97373.03
2022-07-31T23:31:39.773Z,97381.13
2022-07-31T23:34:05.762Z,97382.13
2022-07-31T23:36:31.741Z,97381.31
2022-07-31T23:38:57.773Z,97390.44
2022-07-31T23:41:23.756Z,97387.81
2022-07-31T23:43:54.407Z,97389.41
2022-07-31T23:46:24.487Z,97382.19
2022-07-31T23:48:53.085Z,97388.59
2022-07-31T23:51:19.111Z,97383.00
2022-07-31T23:53:47.005Z,97378.41
2022-07-31T23:56:19.426Z,97388.63
2022-07-31T23:58:45.778Z,97378.72
